Terminal Aerodrome Forecast
Issued by NWS Cleveland, OH

Home | Current Version | Previous Version | Graphics & Text | Print | Product List | Glossary On
Versions: 1 2 3 4 5 6 7 8 9 10 11 12 13 14 15
451
FTUS41 KCLE 200925 AAA
TAFTOL
TAF AMD
KTOL 200925Z 2009/2106 09008KT 3SM BR OVC004
      TEMPO 2009/2011 2SM BR
     FM201100 16010KT 3SM BR SCT025 OVC050
      TEMPO 2011/2013 2SM TSRA BR OVC025CB
     FM201800 22018G28KT P6SM SCT035 BKN050
     FM202100 25015G25KT 5SM -SHRA OVC035
      TEMPO 2021/2024 27020G40KT 2SM TSRA OVC020CB
     FM210100 27012KT P6SM BKN080=

USA.gov is the U.S. government's official web portal to all federal, state and local government web resources and services.